Time;durP1;ratioP1;P1;durP2;ratioP2;P2;SDS_P1;SDS_P2;PMS_P1;PMS_P2;Temp;Humidity;BMP_temperature;BMP_pressure;BME280_temperature;BME280_humidity;BME280_pressure;Samples;Min_cycle;Max_cycle;Signal;HPM_P1;HPM_P2
2021/04/09 00:02:10;;;;;;;13.27;8.07;;;4.80;54.50;;;;;;4931622;29;20210;-79
2021/04/09 00:04:36;;;;;;;15.43;7.73;;;4.70;54.50;;;;;;4929558;29;20170;-80
2021/04/09 00:07:01;;;;;;;13.70;6.80;;;4.70;54.60;;;;;;4931284;29;20414;-80
2021/04/09 00:09:27;;;;;;;10.33;6.60;;;4.70;54.70;;;;;;4932081;29;20426;-80
2021/04/09 00:11:53;;;;;;;14.30;6.50;;;4.70;54.80;;;;;;4929321;29;20175;-80
2021/04/09 00:14:19;;;;;;;12.73;6.80;;;4.60;54.90;;;;;;4935182;29;20171;-79
2021/04/09 00:16:45;;;;;;;11.80;6.73;;;4.60;55.00;;;;;;4935316;29;20447;-80
2021/04/09 00:19:14;;;;;;;10.33;6.50;;;4.60;55.10;;;;;;4936760;29;20344;-78
2021/04/09 00:21:41;;;;;;;11.67;7.90;;;4.60;55.40;;;;;;4933914;29;20178;-79
2021/04/09 00:24:07;;;;;;;10.40;6.33;;;4.50;55.40;;;;;;4931549;29;20414;-80
2021/04/09 00:26:34;;;;;;;11.77;6.57;;;4.50;55.50;;;;;;4931514;29;20414;-79
2021/04/09 00:28:59;;;;;;;10.80;7.10;;;4.50;55.60;;;;;;4931180;29;20434;-80
2021/04/09 00:31:25;;;;;;;17.73;7.80;;;4.50;56.20;;;;;;4934930;29;20461;-79
2021/04/09 00:33:51;;;;;;;9.63;6.70;;;4.50;55.90;;;;;;4931839;29;20458;-79
2021/04/09 00:36:17;;;;;;;9.70;6.77;;;4.50;56.00;;;;;;4930047;29;20184;-79
2021/04/09 00:38:44;;;;;;;16.27;6.70;;;4.40;56.10;;;;;;4934367;29;20214;-81
2021/04/09 00:41:12;;;;;;;12.10;6.87;;;4.40;56.20;;;;;;4934188;29;20831;-80
2021/04/09 00:43:39;;;;;;;10.00;6.30;;;4.40;56.30;;;;;;4929609;29;20484;-81
2021/04/09 00:46:05;;;;;;;9.50;6.47;;;4.40;56.30;;;;;;4925689;29;21050;-79
2021/04/09 00:48:30;;;;;;;10.60;6.57;;;4.40;56.40;;;;;;4927507;29;20479;-80
2021/04/09 00:50:56;;;;;;;9.33;7.20;;;4.40;56.50;;;;;;4925953;29;20415;-80
2021/04/09 00:53:22;;;;;;;10.80;6.70;;;4.40;56.50;;;;;;4927603;29;20167;-78
2021/04/09 00:55:48;;;;;;;12.93;6.17;;;4.40;56.50;;;;;;4926486;29;20273;-79
2021/04/09 00:58:14;;;;;;;12.53;6.40;;;4.40;56.50;;;;;;4943584;23;20210;-75
2021/04/09 01:00:40;;;;;;;11.13;6.17;;;4.40;56.60;;;;;;4919663;29;20523;-74
2021/04/09 01:03:06;;;;;;;13.47;5.70;;;4.40;56.60;;;;;;4909591;29;20476;-75
2021/04/09 01:05:33;;;;;;;7.60;5.23;;;4.40;56.60;;;;;;4932446;29;20488;-74
2021/04/09 01:08:03;;;;;;;10.50;6.43;;;4.40;56.70;;;;;;4913994;29;20714;-75
2021/04/09 01:10:29;;;;;;;15.93;6.43;;;4.40;56.60;;;;;;4915703;29;20836;-75
2021/04/09 01:12:55;;;;;;;8.57;5.87;;;4.40;56.50;;;;;;4915593;29;20781;-75
2021/04/09 01:15:22;;;;;;;10.70;5.43;;;4.40;56.50;;;;;;4916247;29;20415;-76
2021/04/09 01:18:11;;;;;;;8.50;6.97;;;4.30;56.50;;;;;;4916294;29;20533;-76
2021/04/09 01:21:05;;;;;;;10.20;6.07;;;4.30;56.50;;;;;;4915497;29;20522;-73
2021/04/09 01:23:49;;;;;;;8.80;4.97;;;4.30;56.40;;;;;;4898095;29;20469;-76
2021/04/09 01:26:52;;;;;;;13.00;5.63;;;4.30;56.40;;;;;;4914799;29;20477;-76
2021/04/09 01:29:48;;;;;;;7.93;5.10;;;4.40;56.30;;;;;;4914902;29;21091;-76
2021/04/09 01:32:15;;;;;;;9.73;5.07;;;4.40;56.20;;;;;;4915333;29;20418;-76
2021/04/09 01:34:51;;;;;;;8.30;4.83;;;4.40;56.10;;;;;;4915323;29;20449;-75
2021/04/09 01:37:37;;;;;;;11.70;6.13;;;4.40;56.50;;;;;;4915214;29;20415;-75
2021/04/09 01:40:10;;;;;;;7.73;5.10;;;4.40;56.00;;;;;;4898070;29;20422;-75
2021/04/09 01:42:37;;;;;;;9.00;5.30;;;4.40;55.90;;;;;;4913383;29;20463;-75
2021/04/09 01:45:05;;;;;;;8.80;5.37;;;4.40;55.90;;;;;;4914494;29;20430;-75
2021/04/09 01:47:34;;;;;;;14.60;5.80;;;4.40;55.90;;;;;;4897670;29;20433;-75
2021/04/09 01:50:02;;;;;;;10.83;5.70;;;4.40;56.00;;;;;;4913781;29;20435;-74
2021/04/09 01:52:32;;;;;;;8.80;5.00;;;4.40;55.90;;;;;;4914701;29;20430;-74
2021/04/09 01:55:01;;;;;;;14.03;5.77;;;4.40;56.00;;;;;;4913542;29;20430;-75
2021/04/09 01:57:28;;;;;;;8.97;5.70;;;4.40;56.10;;;;;;4914976;29;20423;-75
2021/04/09 01:59:56;;;;;;;10.13;5.37;;;4.40;56.10;;;;;;4897749;29;20521;-74
2021/04/09 02:02:23;;;;;;;7.27;5.20;;;4.40;56.10;;;;;;4914903;29;20753;-74
2021/04/09 02:04:50;;;;;;;11.83;5.57;;;4.40;56.10;;;;;;4914875;29;20426;-75
2021/04/09 02:07:17;;;;;;;16.17;6.90;;;4.40;56.10;;;;;;4913988;29;20434;-74
2021/04/09 02:09:44;;;;;;;11.03;5.47;;;4.40;56.10;;;;;;4914550;29;20457;-75
2021/04/09 02:12:12;;;;;;;8.57;5.10;;;4.40;56.00;;;;;;4914885;29;20473;-74
2021/04/09 02:14:40;;;;;;;7.43;4.70;;;4.50;56.00;;;;;;4914925;29;20465;-74
2021/04/09 02:17:07;;;;;;;8.70;5.00;;;4.50;55.80;;;;;;4914382;29;20415;-75
2021/04/09 02:19:33;;;;;;;11.73;5.80;;;4.60;55.70;;;;;;4914371;29;20454;-74
2021/04/09 02:22:00;;;;;;;8.87;5.80;;;4.70;55.50;;;;;;4914744;29;20510;-75
2021/04/09 02:24:25;;;;;;;8.53;5.20;;;4.70;55.30;;;;;;4914564;29;20419;-76
2021/04/09 02:26:52;;;;;;;19.00;5.97;;;4.70;55.20;;;;;;4912997;29;20423;-75
2021/04/09 02:29:17;;;;;;;8.17;5.43;;;4.80;55.10;;;;;;4913027;29;20195;-75
2021/04/09 02:31:45;;;;;;;17.23;6.53;;;4.80;54.90;;;;;;4913323;29;20418;-75
2021/04/09 02:34:10;;;;;;;8.00;5.97;;;4.80;54.80;;;;;;4915365;29;20576;-74
2021/04/09 02:36:36;;;;;;;10.27;4.93;;;4.80;54.70;;;;;;4913876;29;20438;-75
2021/04/09 02:39:10;;;;;;;14.03;6.60;;;4.80;54.70;;;;;;4914919;29;20186;-75
2021/04/09 02:41:42;;;;;;;9.90;5.00;;;4.80;54.60;;;;;;4926507;29;20170;-75
2021/04/09 02:44:09;;;;;;;11.43;6.30;;;4.80;54.70;;;;;;4918853;29;20439;-75
2021/04/09 02:46:47;;;;;;;6.30;5.30;;;4.80;54.80;;;;;;4919786;29;20406;-76
2021/04/09 02:49:34;;;;;;;10.77;5.93;;;4.70;54.80;;;;;;4900642;29;20492;-75
2021/04/09 02:52:02;;;;;;;7.57;5.70;;;4.70;54.90;;;;;;4916356;29;20488;-74
2021/04/09 02:54:30;;;;;;;9.63;5.20;;;4.60;55.00;;;;;;4918398;29;20429;-75
2021/04/09 02:56:57;;;;;;;8.57;5.53;;;4.60;55.10;;;;;;4917941;29;20410;-74
2021/04/09 02:59:24;;;;;;;12.57;6.13;;;4.50;55.20;;;;;;4916372;29;20477;-74
2021/04/09 03:01:51;;;;;;;8.30;5.97;;;4.50;55.40;;;;;;4916965;29;20411;-75
2021/04/09 03:04:17;;;;;;;8.43;4.90;;;4.50;55.60;;;;;;4918367;29;20488;-75
2021/04/09 03:06:44;;;;;;;14.70;6.23;;;4.50;55.70;;;;;;4901056;29;20446;-75
2021/04/09 03:09:10;;;;;;;11.37;4.97;;;4.50;55.90;;;;;;4917656;29;20951;-75
2021/04/09 03:11:37;;;;;;;7.10;4.80;;;4.40;55.90;;;;;;4917358;29;20477;-75
2021/04/09 03:14:04;;;;;;;8.93;5.40;;;4.40;56.00;;;;;;4918727;29;20418;-75
2021/04/09 03:17:01;;;;;;;9.00;5.87;;;4.40;56.10;;;;;;4900970;29;20418;-75
2021/04/09 03:19:27;;;;;;;9.73;6.77;;;4.40;56.20;;;;;;4900909;29;20459;-76
2021/04/09 03:21:53;;;;;;;9.17;5.33;;;4.40;56.30;;;;;;4916369;29;20547;-75
2021/04/09 03:24:18;;;;;;;10.13;6.23;;;4.40;56.30;;;;;;4917569;29;20181;-74
2021/04/09 03:26:44;;;;;;;12.90;5.27;;;4.30;56.40;;;;;;4917436;29;20422;-75
2021/04/09 03:29:11;;;;;;;12.37;6.30;;;4.30;56.50;;;;;;4916005;29;20190;-75
2021/04/09 03:31:36;;;;;;;9.10;5.70;;;4.30;57.20;;;;;;4932583;29;20414;-74
2021/04/09 03:34:02;;;;;;;11.73;5.53;;;4.30;56.80;;;;;;4916471;29;20189;-74
2021/04/09 03:36:28;;;;;;;9.20;5.87;;;4.30;56.80;;;;;;4917072;29;20166;-75
2021/04/09 03:38:53;;;;;;;8.07;5.23;;;4.30;57.00;;;;;;4916921;29;20442;-74
2021/04/09 03:41:19;;;;;;;12.27;5.53;;;4.30;57.40;;;;;;4917292;29;20182;-74
2021/04/09 03:43:45;;;;;;;9.87;5.73;;;4.20;57.40;;;;;;4915923;29;20249;-75
2021/04/09 03:46:11;;;;;;;7.47;4.83;;;4.20;57.40;;;;;;4916926;29;20166;-74
2021/04/09 03:48:36;;;;;;;7.90;5.40;;;4.20;57.60;;;;;;4916657;29;20577;-74
2021/04/09 03:51:04;;;;;;;8.70;5.40;;;4.20;57.70;;;;;;4915808;29;20226;-74
2021/04/09 03:53:29;;;;;;;11.80;5.80;;;4.20;57.70;;;;;;4918714;29;20652;-74
2021/04/09 03:55:56;;;;;;;6.90;5.17;;;4.20;57.70;;;;;;4936211;29;20442;-75
2021/04/09 03:58:22;;;;;;;11.07;6.20;;;4.20;57.60;;;;;;4919334;29;20811;-75
2021/04/09 04:00:48;;;;;;;6.93;5.00;;;4.20;57.60;;;;;;4922013;29;20414;-76
2021/04/09 04:03:13;;;;;;;10.33;5.27;;;4.30;57.60;;;;;;4924929;29;20541;-75
2021/04/09 04:05:39;;;;;;;13.97;5.87;;;4.30;57.50;;;;;;4921994;29;20246;-74
2021/04/09 04:08:06;;;;;;;12.33;6.57;;;4.30;57.50;;;;;;4930155;29;21011;-75
2021/04/09 04:10:32;;;;;;;12.73;6.37;;;4.30;57.50;;;;;;4941988;29;20162;-75
2021/04/09 04:12:57;;;;;;;17.73;7.27;;;4.30;57.50;;;;;;4946862;29;20468;-75
2021/04/09 04:15:25;;;;;;;16.00;7.20;;;4.30;57.50;;;;;;4933699;29;20171;-76
2021/04/09 04:17:54;;;;;;;11.57;5.57;;;4.30;57.50;;;;;;4928434;29;20270;-76
2021/04/09 04:20:20;;;;;;;16.47;5.73;;;4.30;57.50;;;;;;4942130;29;20444;-74
2021/04/09 04:22:46;;;;;;;12.23;7.20;;;4.40;57.50;;;;;;4927404;29;20564;-73
2021/04/09 04:25:12;;;;;;;7.53;4.63;;;4.40;57.40;;;;;;4926970;29;20431;-75
2021/04/09 04:27:37;;;;;;;15.47;7.20;;;4.40;57.40;;;;;;4917724;29;20225;-75
2021/04/09 04:30:04;;;;;;;13.30;8.33;;;4.40;57.30;;;;;;4915870;29;20434;-75
2021/04/09 04:32:30;;;;;;;11.93;6.47;;;4.40;57.20;;;;;;4917094;29;20782;-75
2021/04/09 04:34:56;;;;;;;10.27;6.20;;;4.40;57.20;;;;;;4917145;29;20441;-75
2021/04/09 04:37:21;;;;;;;12.53;6.77;;;4.40;57.20;;;;;;4917332;29;20171;-75
2021/04/09 04:39:47;;;;;;;13.07;5.60;;;4.40;57.20;;;;;;4917169;29;20177;-75
2021/04/09 04:42:13;;;;;;;10.77;6.63;;;4.40;57.20;;;;;;4915897;29;20194;-75
2021/04/09 04:44:39;;;;;;;9.17;5.93;;;4.40;57.40;;;;;;4899760;29;20610;-75
2021/04/09 04:47:04;;;;;;;12.47;6.33;;;4.30;57.40;;;;;;4913226;29;20193;-76
2021/04/09 04:49:31;;;;;;;11.63;6.30;;;4.30;57.50;;;;;;4914656;29;20672;-76
2021/04/09 04:51:56;;;;;;;10.10;5.90;;;4.30;57.60;;;;;;4917819;29;20174;-76
2021/04/09 04:54:22;;;;;;;8.80;6.30;;;4.30;57.50;;;;;;4931659;29;20583;-76
2021/04/09 04:56:48;;;;;;;21.87;7.40;;;4.30;57.50;;;;;;4907102;29;20233;-76
2021/04/09 04:59:13;;;;;;;12.97;6.40;;;4.40;57.60;;;;;;4908999;29;20575;-77
2021/04/09 05:01:39;;;;;;;13.83;7.33;;;4.40;57.60;;;;;;4914341;29;20439;-75
2021/04/09 05:04:05;;;;;;;13.20;8.00;;;4.40;57.50;;;;;;4913972;29;20197;-76
2021/04/09 05:06:31;;;;;;;15.17;7.80;;;4.40;57.40;;;;;;4916369;29;20666;-76
2021/04/09 05:08:58;;;;;;;14.77;8.30;;;4.50;57.40;;;;;;4915644;29;20450;-76
2021/04/09 05:11:24;;;;;;;12.13;6.77;;;4.50;57.40;;;;;;4921017;29;20182;-76
2021/04/09 05:13:50;;;;;;;15.73;8.80;;;4.60;57.30;;;;;;4920455;29;20835;-82
2021/04/09 05:16:16;;;;;;;10.70;6.90;;;4.60;57.20;;;;;;4926230;29;20968;-80
2021/04/09 05:18:42;;;;;;;10.70;6.90;;;4.70;57.00;;;;;;4926972;29;20450;-81
2021/04/09 05:21:07;;;;;;;11.00;6.47;;;4.70;56.80;;;;;;4910057;29;20181;-81
2021/04/09 05:23:33;;;;;;;11.40;6.17;;;4.80;56.80;;;;;;4928988;29;20268;-80
2021/04/09 05:25:59;;;;;;;10.10;6.10;;;4.80;56.70;;;;;;4942838;29;20661;-80
2021/04/09 05:28:25;;;;;;;11.43;6.47;;;4.90;56.60;;;;;;4929499;29;20209;-80
2021/04/09 05:30:50;;;;;;;14.60;6.83;;;5.00;56.50;;;;;;4926985;29;20170;-80
2021/04/09 05:33:16;;;;;;;12.90;6.90;;;5.10;56.40;;;;;;4926949;29;20229;-81
2021/04/09 05:35:42;;;;;;;16.90;7.03;;;5.10;56.20;;;;;;4927297;29;20181;-81
2021/04/09 05:38:08;;;;;;;11.90;7.03;;;5.20;56.00;;;;;;4923151;29;20186;-80
2021/04/09 05:40:33;;;;;;;10.73;6.43;;;5.30;55.80;;;;;;4918569;29;20466;-78
2021/04/09 05:43:01;;;;;;;8.37;6.63;;;5.40;55.70;;;;;;4916263;29;20257;-78
2021/04/09 05:45:27;;;;;;;11.27;5.27;;;5.50;55.40;;;;;;4917217;29;20171;-78
2021/04/09 05:47:54;;;;;;;9.47;6.40;;;5.60;55.30;;;;;;4916933;29;20440;-79
2021/04/09 05:50:20;;;;;;;14.23;6.83;;;5.70;55.00;;;;;;4916474;29;20176;-79
2021/04/09 05:52:48;;;;;;;10.73;6.47;;;5.70;54.80;;;;;;4919178;29;20434;-78
2021/04/09 05:55:15;;;;;;;12.43;7.50;;;5.80;54.60;;;;;;4910498;29;20471;-80
2021/04/09 05:57:42;;;;;;;8.50;5.50;;;5.90;54.60;;;;;;4917510;29;20439;-78
2021/04/09 06:00:10;;;;;;;9.37;6.90;;;6.00;54.50;;;;;;4921426;29;20449;-79
2021/04/09 06:02:36;;;;;;;11.90;7.03;;;6.00;54.40;;;;;;4920689;29;20466;-79
2021/04/09 06:05:04;;;;;;;9.57;6.27;;;6.00;54.40;;;;;;4921284;29;20453;-80
2021/04/09 06:07:30;;;;;;;12.93;7.27;;;6.10;54.20;;;;;;4915932;29;20182;-78
2021/04/09 06:09:55;;;;;;;8.67;6.10;;;6.20;54.20;;;;;;4917636;29;20422;-80
2021/04/09 06:12:22;;;;;;;14.83;6.43;;;6.20;54.10;;;;;;4915138;29;20187;-78
2021/04/09 06:14:48;;;;;;;11.83;6.63;;;6.30;53.80;;;;;;4918145;29;20182;-78
2021/04/09 06:17:14;;;;;;;13.73;7.10;;;6.40;53.60;;;;;;4928665;29;20434;-79
2021/04/09 06:19:39;;;;;;;17.53;7.20;;;6.50;53.40;;;;;;4933357;29;20293;-77
2021/04/09 06:22:05;;;;;;;9.73;7.10;;;6.60;53.10;;;;;;4919158;29;20178;-79
2021/04/09 06:24:31;;;;;;;15.30;7.00;;;6.60;52.80;;;;;;4916547;29;20174;-80
2021/04/09 06:26:56;;;;;;;16.60;7.27;;;6.70;53.00;;;;;;4923807;29;20185;-78
2021/04/09 06:29:22;;;;;;;10.40;6.60;;;6.70;52.70;;;;;;4928296;29;20194;-79
2021/04/09 06:31:48;;;;;;;8.77;6.10;;;6.80;52.60;;;;;;4917193;29;20223;-80
2021/04/09 06:34:14;;;;;;;8.50;6.23;;;6.90;52.40;;;;;;4904534;29;20254;-79
2021/04/09 06:36:40;;;;;;;11.03;6.03;;;6.90;52.30;;;;;;4920608;29;20518;-79
2021/04/09 06:39:05;;;;;;;14.70;6.00;;;7.00;52.10;;;;;;4923353;29;20277;-78
2021/04/09 06:41:34;;;;;;;14.87;7.77;;;7.00;51.90;;;;;;4917839;29;20435;-78
2021/04/09 06:44:00;;;;;;;10.33;6.63;;;7.20;51.80;;;;;;4913883;29;20195;-78
2021/04/09 06:46:26;;;;;;;11.47;5.97;;;7.40;51.60;;;;;;4916032;29;20540;-81
2021/04/09 06:48:54;;;;;;;12.50;6.60;;;7.50;51.30;;;;;;4918103;29;20443;-80
2021/04/09 06:51:20;;;;;;;14.50;7.30;;;7.70;51.10;;;;;;4930776;29;20516;-80
2021/04/09 06:53:48;;;;;;;11.90;6.50;;;7.90;50.20;;;;;;4917194;29;20435;-79
2021/04/09 06:56:15;;;;;;;13.83;6.23;;;8.10;50.00;;;;;;4931954;29;20607;-80
2021/04/09 06:58:46;;;;;;;9.10;6.13;;;8.20;49.50;;;;;;4925279;29;20490;-80
2021/04/09 07:01:15;;;;;;;13.73;6.70;;;8.40;49.00;;;;;;4923803;29;20433;-80
2021/04/09 07:03:40;;;;;;;12.80;7.27;;;8.60;48.10;;;;;;4931079;29;20458;-80
2021/04/09 07:06:06;;;;;;;12.80;6.60;;;8.80;47.70;;;;;;4939541;29;20449;-79
2021/04/09 07:08:38;;;;;;;15.23;6.47;;;9.00;47.00;;;;;;4922911;29;20230;-79
2021/04/09 07:11:04;;;;;;;7.70;6.30;;;9.40;46.30;;;;;;4923651;29;20167;-78
2021/04/09 07:13:48;;;;;;;14.87;8.33;;;9.60;46.10;;;;;;4917395;29;20436;-80
2021/04/09 07:16:14;;;;;;;16.20;7.10;;;9.90;45.50;;;;;;4917333;29;21003;-80
2021/04/09 07:19:00;;;;;;;16.73;8.40;;;10.20;43.40;;;;;;4926939;29;20438;-80
2021/04/09 07:21:38;;;;;;;9.57;6.17;;;10.40;43.60;;;;;;4925590;29;20194;-79
2021/04/09 07:24:13;;;;;;;13.63;7.37;;;10.70;42.90;;;;;;4924357;29;20462;-78
2021/04/09 07:26:48;;;;;;;15.50;6.80;;;11.30;41.70;;;;;;4925893;29;20753;-79
2021/04/09 07:29:40;;;;;;;25.50;7.57;;;12.00;41.00;;;;;;4919339;29;20453;-80
2021/04/09 07:32:09;;;;;;;11.20;6.70;;;12.50;39.00;;;;;;4916571;29;20423;-81
2021/04/09 07:34:58;;;;;;;14.17;7.50;;;12.70;39.10;;;;;;4925590;29;20418;-77
2021/04/09 07:37:27;;;;;;;9.47;6.70;;;12.60;38.60;;;;;;4920149;29;20831;-76
2021/04/09 07:40:04;;;;;;;15.23;7.07;;;12.60;38.70;;;;;;4929298;29;20417;-76
2021/04/09 07:42:37;;;;;;;14.97;7.67;;;13.10;38.80;;;;;;4911375;29;20490;-75
2021/04/09 07:45:10;;;;;;;11.03;7.03;;;13.60;37.90;;;;;;4919701;29;20464;-76
2021/04/09 07:47:37;;;;;;;8.53;5.30;;;13.70;37.40;;;;;;4903640;29;20435;-75
2021/04/09 07:50:11;;;;;;;16.00;8.37;;;14.20;37.00;;;;;;4909637;29;20415;-75
2021/04/09 07:52:39;;;;;;;15.23;7.00;;;15.10;36.40;;;;;;4915362;29;20460;-75
2021/04/09 07:55:17;;;;;;;13.07;7.40;;;15.50;34.10;;;;;;4918786;29;20422;-75
2021/04/09 07:57:43;;;;;;;17.10;7.20;;;15.50;34.30;;;;;;4899147;29;20472;-75
2021/04/09 08:00:20;;;;;;;11.93;6.10;;;16.10;33.90;;;;;;4921359;29;20408;-75
2021/04/09 08:06:45;;;;;;;12.17;7.13;;;16.90;31.90;;;;;;4855009;29;20424;-75
2021/04/09 08:09:11;;;;;;;9.27;7.03;;;16.60;31.50;;;;;;4875745;29;20485;-75
2021/04/09 08:12:14;;;;;;;11.80;7.50;;;16.10;32.10;;;;;;4917783;29;20200;-76
2021/04/09 08:15:32;;;;;;;13.80;7.10;;;15.50;32.90;;;;;;4901990;29;20188;-76
2021/04/09 08:21:31;;;;;;;12.77;5.90;;;15.60;33.80;;;;;;4831146;29;20423;-76
2021/04/09 08:23:57;;;;;;;15.00;6.73;;;17.00;31.90;;;;;;4905784;29;20971;-76
2021/04/09 08:26:24;;;;;;;13.27;6.93;;;17.40;31.30;;;;;;4916309;29;20438;-76
2021/04/09 08:28:51;;;;;;;14.37;6.43;;;17.10;30.00;;;;;;4927754;29;20458;-77
2021/04/09 08:31:21;;;;;;;12.60;7.77;;;16.60;30.80;;;;;;4901526;29;20422;-76
2021/04/09 08:33:48;;;;;;;12.83;7.47;;;16.00;31.10;;;;;;4917965;29;20557;-76
2021/04/09 08:36:15;;;;;;;12.70;7.83;;;15.60;32.00;;;;;;4900212;29;20494;-76
2021/04/09 08:38:43;;;;;;;10.30;6.70;;;15.40;32.70;;;;;;4916557;29;20455;-76
2021/04/09 08:41:10;;;;;;;10.87;7.23;;;15.30;33.00;;;;;;4916202;29;20473;-76
2021/04/09 08:43:35;;;;;;;14.33;5.40;;;15.40;32.50;;;;;;4900027;29;20498;-76
2021/04/09 08:46:01;;;;;;;10.57;6.70;;;15.90;32.10;;;;;;4918540;29;20434;-76
2021/04/09 08:48:28;;;;;;;12.70;6.47;;;16.70;31.80;;;;;;4916878;29;20203;-75
2021/04/09 08:50:54;;;;;;;11.73;7.17;;;17.60;30.50;;;;;;4918089;29;20170;-76
2021/04/09 08:53:27;;;;;;;17.13;10.33;;;18.20;29.50;;;;;;4925476;29;20450;-77
2021/04/09 08:55:53;;;;;;;11.43;5.70;;;18.40;29.70;;;;;;4927495;29;20403;-76
2021/04/09 08:58:19;;;;;;;11.23;5.50;;;18.70;29.20;;;;;;4917033;29;20468;-77
2021/04/09 09:00:51;;;;;;;15.37;6.40;;;18.50;29.00;;;;;;4920390;29;20640;-77
2021/04/09 09:03:23;;;;;;;9.20;6.17;;;18.40;28.90;;;;;;4918710;29;20454;-77
2021/04/09 09:06:05;;;;;;;9.30;5.40;;;18.30;29.40;;;;;;4916508;29;20496;-76
2021/04/09 09:08:43;;;;;;;13.83;6.60;;;18.10;29.40;;;;;;4910332;29;20999;-77
2021/04/09 09:11:10;;;;;;;9.77;5.50;;;18.40;28.90;;;;;;4916301;29;20433;-76
2021/04/09 09:13:47;;;;;;;9.40;5.90;;;18.70;28.70;;;;;;4912375;29;20941;-76
2021/04/09 09:16:20;;;;;;;13.00;6.57;;;18.70;28.40;;;;;;4915546;29;20445;-76
2021/04/09 09:23:25;;;;;;;9.50;5.80;;;18.90;28.20;;;;;;4868158;29;21051;-76
2021/04/09 09:26:14;;;;;;;14.30;5.40;;;19.00;28.20;;;;;;4848971;29;20428;-75
2021/04/09 09:28:40;;;;;;;10.87;5.70;;;18.70;28.70;;;;;;4926728;29;20437;-76
2021/04/09 09:31:29;;;;;;;9.07;5.47;;;18.10;28.70;;;;;;4915917;29;20419;-77
2021/04/09 09:34:17;;;;;;;9.23;5.50;;;17.50;29.00;;;;;;4916802;29;20241;-76
2021/04/09 09:37:44;;;;;;;;;;;;;;;;;;;;;
2021/04/09 09:40:45;;;;;;;11.30;6.47;;;16.60;30.30;;;;;;4903458;29;20537;-76
2021/04/09 09:43:29;;;;;;;12.57;8.77;;;16.90;30.10;;;;;;4911741;29;20790;-78
2021/04/09 09:45:55;;;;;;;10.00;6.50;;;17.50;30.50;;;;;;4913672;29;20844;-77
2021/04/09 09:48:20;;;;;;;11.23;6.43;;;18.50;29.90;;;;;;4919544;29;20510;-76
2021/04/09 09:50:46;;;;;;;11.83;4.60;;;19.00;28.60;;;;;;4912984;29;20210;-76
2021/04/09 09:53:12;;;;;;;13.67;9.30;;;19.10;28.60;;;;;;4926140;29;20181;-75
2021/04/09 09:55:41;;;;;;;15.10;9.23;;;19.30;28.40;;;;;;4915992;29;20174;-77
2021/04/09 09:58:17;;;;;;;10.43;5.73;;;19.10;28.30;;;;;;4920435;29;20264;-76
2021/04/09 10:01:03;;;;;;;9.50;6.20;;;18.60;28.90;;;;;;4904344;29;20921;-76
2021/04/09 10:06:29;;;;;;;19.03;6.87;;;17.60;29.50;;;;;;4901767;29;20917;-77
2021/04/09 10:08:54;;;;;;;8.00;4.17;;;16.80;30.50;;;;;;4900573;29;20958;-75
2021/04/09 10:11:23;;;;;;;12.17;7.03;;;16.40;30.80;;;;;;4911461;29;20446;-76
2021/04/09 10:13:51;;;;;;;8.30;5.00;;;16.40;31.40;;;;;;4913307;29;20199;-76
2021/04/09 10:16:22;;;;;;;6.93;4.60;;;16.50;30.90;;;;;;4931090;29;20632;-75
2021/04/09 10:18:56;;;;;;;16.00;8.20;;;16.60;31.10;;;;;;4911485;29;20516;-76
2021/04/09 10:21:26;;;;;;;16.20;5.73;;;17.10;31.40;;;;;;4917056;29;20445;-77
2021/04/09 10:24:07;;;;;;;6.30;5.00;;;17.60;30.40;;;;;;4898962;29;20446;-78
2021/04/09 10:26:38;;;;;;;12.70;7.77;;;17.60;30.00;;;;;;4914510;29;20436;-75
2021/04/09 10:29:38;;;;;;;11.40;5.70;;;17.60;30.00;;;;;;4910684;29;20428;-75
2021/04/09 10:32:50;;;;;;;12.37;6.23;;;17.50;30.00;;;;;;4912444;29;20439;-76
2021/04/09 10:35:27;;;;;;;9.30;6.07;;;17.20;30.00;;;;;;4894180;29;20423;-75
2021/04/09 10:38:12;;;;;;;10.77;5.60;;;16.80;30.50;;;;;;4896961;29;20457;-77
2021/04/09 10:40:50;;;;;;;10.60;5.27;;;16.40;31.30;;;;;;4912979;29;20418;-75
2021/04/09 10:43:35;;;;;;;9.73;5.17;;;16.30;31.80;;;;;;4905179;29;20455;-77
2021/04/09 10:46:05;;;;;;;10.23;5.57;;;16.50;31.70;;;;;;4905162;29;20472;-75
2021/04/09 10:48:32;;;;;;;8.50;6.37;;;16.40;31.80;;;;;;4913544;29;20944;-75
2021/04/09 10:50:57;;;;;;;8.90;6.33;;;16.20;31.70;;;;;;4913879;29;20514;-76
2021/04/09 10:53:23;;;;;;;7.37;4.50;;;16.10;32.00;;;;;;4909139;29;20514;-76
2021/04/09 10:55:49;;;;;;;16.80;6.23;;;15.80;32.10;;;;;;4913427;29;20261;-76
2021/04/09 10:58:16;;;;;;;8.13;4.93;;;15.70;32.90;;;;;;4906004;29;20266;-76
2021/04/09 11:00:44;;;;;;;9.90;4.40;;;15.80;32.90;;;;;;4923007;29;20556;-76
2021/04/09 11:03:11;;;;;;;7.17;4.40;;;16.10;32.70;;;;;;4912974;29;20460;-75
2021/04/09 11:05:37;;;;;;;7.87;4.30;;;16.40;32.50;;;;;;4916768;29;20411;-75
2021/04/09 11:08:03;;;;;;;8.70;5.20;;;16.60;32.40;;;;;;4917697;29;20442;-76
2021/04/09 11:10:37;;;;;;;10.00;4.87;;;16.90;31.60;;;;;;4924765;29;20788;-76
2021/04/09 11:13:04;;;;;;;9.43;5.00;;;17.00;31.80;;;;;;4908715;29;20536;-76
2021/04/09 11:15:45;;;;;;;7.13;4.30;;;17.00;31.80;;;;;;4913295;29;20423;-76
2021/04/09 11:18:13;;;;;;;6.17;4.20;;;17.00;31.40;;;;;;4904129;29;20465;-75
2021/04/09 11:20:46;;;;;;;8.83;4.67;;;16.80;31.50;;;;;;4883349;29;20428;-76
2021/04/09 11:23:37;;;;;;;6.83;4.73;;;16.60;32.30;;;;;;4912483;29;20469;-76
2021/04/09 11:26:15;;;;;;;7.87;4.97;;;16.40;32.60;;;;;;4902064;29;20442;-76
2021/04/09 11:28:41;;;;;;;10.00;5.63;;;16.30;33.00;;;;;;4918630;29;20868;-74
2021/04/09 11:31:08;;;;;;;10.13;4.40;;;16.30;33.30;;;;;;4917976;29;20446;-76
2021/04/09 11:33:37;;;;;;;7.30;4.60;;;16.50;33.00;;;;;;4901363;29;20671;-77
2021/04/09 11:36:23;;;;;;;4.60;3.53;;;16.60;32.80;;;;;;4904478;29;20514;-77
2021/04/09 11:39:24;;;;;;;17.17;11.43;;;16.60;32.70;;;;;;4901653;29;20475;-77
2021/04/09 11:42:26;;;;;;;14.10;4.57;;;16.80;32.80;;;;;;4882936;29;20423;-75
2021/04/09 11:44:52;;;;;;;5.60;3.63;;;16.90;32.60;;;;;;4900334;29;20483;-77
2021/04/09 11:47:25;;;;;;;10.03;4.50;;;16.90;32.00;;;;;;4899478;29;20416;-76
2021/04/09 11:50:14;;;;;;;6.13;4.30;;;16.90;31.80;;;;;;4898538;29;20562;-76
2021/04/09 11:52:59;;;;;;;9.63;5.17;;;16.70;31.90;;;;;;4913486;29;20413;-76
2021/04/09 11:55:31;;;;;;;9.43;4.00;;;16.80;32.40;;;;;;4924312;29;20797;-77
2021/04/09 11:57:57;;;;;;;13.60;5.13;;;16.70;32.90;;;;;;4909415;29;20510;-77
2021/04/09 12:00:26;;;;;;;7.27;4.20;;;16.60;32.60;;;;;;4911363;29;20423;-77
2021/04/09 12:03:01;;;;;;;7.07;3.97;;;16.60;32.20;;;;;;4922988;29;20442;-76
2021/04/09 12:05:29;;;;;;;8.20;4.77;;;16.70;32.30;;;;;;4921935;29;20430;-77
2021/04/09 12:07:56;;;;;;;5.53;3.50;;;16.90;32.10;;;;;;4938234;29;20493;-76
2021/04/09 12:10:24;;;;;;;6.63;4.37;;;17.20;31.60;;;;;;4925936;29;20468;-76
2021/04/09 12:12:51;;;;;;;16.27;8.80;;;17.20;31.80;;;;;;4901498;29;20463;-75
2021/04/09 12:15:17;;;;;;;7.47;4.70;;;17.10;31.90;;;;;;4897848;29;20416;-75
2021/04/09 12:17:44;;;;;;;9.10;4.60;;;17.00;31.40;;;;;;4905462;29;20426;-75
2021/04/09 12:20:19;;;;;;;14.43;6.37;;;17.00;32.10;;;;;;4905499;29;20435;-77
2021/04/09 12:24:08;;;;;;;8.27;4.97;;;17.10;32.20;;;;;;4914698;29;20454;-76
2021/04/09 12:26:24;;;;;;;11.50;7.03;;;17.00;32.00;;;;;;4927117;29;20468;-76
2021/04/09 12:31:45;;;;;;;8.83;4.90;;;16.80;32.00;;;;;;4908879;29;20474;-76
2021/04/09 12:34:11;;;;;;;7.80;4.60;;;16.70;31.90;;;;;;4910871;29;20414;-77
2021/04/09 12:36:37;;;;;;;8.23;5.00;;;16.60;32.30;;;;;;4925375;29;20903;-75
2021/04/09 12:39:10;;;;;;;6.97;4.30;;;16.70;32.20;;;;;;4914777;29;20213;-74
2021/04/09 12:41:42;;;;;;;10.03;4.87;;;16.70;31.90;;;;;;4919617;29;20438;-76
2021/04/09 12:44:10;;;;;;;8.00;4.60;;;16.60;32.30;;;;;;4924495;29;20462;-75
2021/04/09 12:46:52;;;;;;;;;;;;;;;;;;;;;
2021/04/09 12:49:19;;;;;;;8.63;5.57;;;16.70;32.70;;;;;;4912180;29;20438;-76
2021/04/09 12:51:46;;;;;;;5.50;4.30;;;16.70;32.20;;;;;;4903163;29;20428;-76
2021/04/09 12:54:13;;;;;;;6.37;4.17;;;16.70;32.20;;;;;;4915767;29;20431;-75
2021/04/09 12:56:42;;;;;;;13.63;4.90;;;16.60;31.70;;;;;;4918586;29;20841;-76
2021/04/09 12:59:08;;;;;;;7.13;5.40;;;16.40;32.10;;;;;;4927582;29;20469;-76
2021/04/09 13:01:33;;;;;;;17.03;5.43;;;16.20;31.90;;;;;;4916570;29;20422;-75
2021/04/09 13:03:59;;;;;;;7.57;4.70;;;16.10;32.80;;;;;;4909783;29;20241;-76
2021/04/09 13:06:26;;;;;;;7.33;4.70;;;16.20;33.00;;;;;;4916735;29;20656;-76
2021/04/09 13:08:51;;;;;;;7.07;5.60;;;16.40;32.50;;;;;;4907779;29;20697;-76
2021/04/09 13:11:20;;;;;;;8.80;5.77;;;16.50;33.00;;;;;;4919000;29;20421;-75
2021/04/09 13:13:56;;;;;;;9.80;5.13;;;16.60;32.30;;;;;;4908373;29;20352;-76
2021/04/09 13:16:23;;;;;;;14.03;6.13;;;16.70;32.50;;;;;;4915361;29;20482;-77
2021/04/09 13:18:50;;;;;;;11.43;5.40;;;16.80;32.30;;;;;;4899738;29;20466;-75
2021/04/09 13:21:16;;;;;;;6.50;4.97;;;16.90;32.10;;;;;;4907120;29;20432;-75
2021/04/09 13:23:43;;;;;;;5.27;4.10;;;17.00;32.00;;;;;;4924338;29;20462;-76